sensor_id;sensor_type;location;lat;lon;timestamp;P1;durP1;ratioP1;P2;durP2;ratioP2
23588;SDS011;11972;48.078;11.876;2023-10-13T00:00:28;3.13;;;2.27;;
23588;SDS011;11972;48.078;11.876;2023-10-13T00:04:36;4.90;;;2.00;;
23588;SDS011;11972;48.078;11.876;2023-10-13T00:08:36;3.65;;;2.20;;
23588;SDS011;11972;48.078;11.876;2023-10-13T00:12:37;3.60;;;1.87;;
23588;SDS011;11972;48.078;11.876;2023-10-13T00:16:38;4.28;;;1.90;;
23588;SDS011;11972;48.078;11.876;2023-10-13T00:20:40;6.47;;;2.00;;
23588;SDS011;11972;48.078;11.876;2023-10-13T00:24:48;5.03;;;1.97;;
23588;SDS011;11972;48.078;11.876;2023-10-13T00:28:51;2.83;;;2.00;;
23588;SDS011;11972;48.078;11.876;2023-10-13T00:32:59;3.65;;;1.80;;
23588;SDS011;11972;48.078;11.876;2023-10-13T00:36:59;8.45;;;2.17;;
23588;SDS011;11972;48.078;11.876;2023-10-13T00:41:17;3.22;;;1.73;;
23588;SDS011;11972;48.078;11.876;2023-10-13T00:45:20;4.05;;;1.65;;
23588;SDS011;11972;48.078;11.876;2023-10-13T00:49:20;4.38;;;1.98;;
23588;SDS011;11972;48.078;11.876;2023-10-13T00:53:22;2.83;;;1.70;;
23588;SDS011;11972;48.078;11.876;2023-10-13T00:57:25;6.82;;;2.05;;
23588;SDS011;11972;48.078;11.876;2023-10-13T01:01:30;4.72;;;1.55;;
23588;SDS011;11972;48.078;11.876;2023-10-13T01:05:32;4.50;;;1.98;;
23588;SDS011;11972;48.078;11.876;2023-10-13T01:09:39;5.40;;;2.40;;
23588;SDS011;11972;48.078;11.876;2023-10-13T01:13:42;6.32;;;2.22;;
23588;SDS011;11972;48.078;11.876;2023-10-13T01:17:42;4.60;;;1.70;;
23588;SDS011;11972;48.078;11.876;2023-10-13T01:21:48;4.90;;;2.30;;
23588;SDS011;11972;48.078;11.876;2023-10-13T01:25:48;4.35;;;1.60;;
23588;SDS011;11972;48.078;11.876;2023-10-13T01:29:48;3.23;;;1.90;;
23588;SDS011;11972;48.078;11.876;2023-10-13T01:33:51;4.10;;;1.98;;
23588;SDS011;11972;48.078;11.876;2023-10-13T01:37:54;4.57;;;1.77;;
23588;SDS011;11972;48.078;11.876;2023-10-13T01:41:57;6.17;;;1.77;;
23588;SDS011;11972;48.078;11.876;2023-10-13T01:45:58;6.75;;;2.13;;
23588;SDS011;11972;48.078;11.876;2023-10-13T01:49:58;4.20;;;2.10;;
23588;SDS011;11972;48.078;11.876;2023-10-13T01:54:13;4.38;;;1.83;;
23588;SDS011;11972;48.078;11.876;2023-10-13T01:58:16;5.50;;;1.70;;
23588;SDS011;11972;48.078;11.876;2023-10-13T02:02:16;7.80;;;2.20;;
23588;SDS011;11972;48.078;11.876;2023-10-13T02:06:29;5.78;;;1.75;;
23588;SDS011;11972;48.078;11.876;2023-10-13T02:10:33;2.22;;;1.48;;
23588;SDS011;11972;48.078;11.876;2023-10-13T02:14:34;4.22;;;2.10;;
23588;SDS011;11972;48.078;11.876;2023-10-13T02:18:36;2.33;;;1.50;;
23588;SDS011;11972;48.078;11.876;2023-10-13T02:22:43;8.77;;;1.95;;
23588;SDS011;11972;48.078;11.876;2023-10-13T02:26:50;3.83;;;1.67;;
23588;SDS011;11972;48.078;11.876;2023-10-13T02:30:50;2.92;;;1.52;;
23588;SDS011;11972;48.078;11.876;2023-10-13T02:34:53;3.15;;;1.67;;
23588;SDS011;11972;48.078;11.876;2023-10-13T02:38:57;7.15;;;1.95;;
23588;SDS011;11972;48.078;11.876;2023-10-13T02:42:58;3.58;;;1.50;;
23588;SDS011;11972;48.078;11.876;2023-10-13T02:47:01;4.82;;;1.75;;
23588;SDS011;11972;48.078;11.876;2023-10-13T02:51:13;4.72;;;1.80;;
23588;SDS011;11972;48.078;11.876;2023-10-13T02:55:16;6.43;;;2.10;;
23588;SDS011;11972;48.078;11.876;2023-10-13T02:59:25;3.13;;;1.92;;
23588;SDS011;11972;48.078;11.876;2023-10-13T03:03:56;6.20;;;1.95;;
23588;SDS011;11972;48.078;11.876;2023-10-13T03:07:58;7.55;;;1.92;;
23588;SDS011;11972;48.078;11.876;2023-10-13T03:11:58;8.15;;;2.22;;
23588;SDS011;11972;48.078;11.876;2023-10-13T03:15:59;6.13;;;2.37;;
23588;SDS011;11972;48.078;11.876;2023-10-13T03:19:59;5.57;;;2.05;;
23588;SDS011;11972;48.078;11.876;2023-10-13T03:24:00;7.70;;;2.67;;
23588;SDS011;11972;48.078;11.876;2023-10-13T03:28:05;8.60;;;1.70;;
23588;SDS011;11972;48.078;11.876;2023-10-13T03:32:07;7.93;;;2.00;;
23588;SDS011;11972;48.078;11.876;2023-10-13T03:36:13;3.67;;;1.58;;
23588;SDS011;11972;48.078;11.876;2023-10-13T03:40:33;8.68;;;2.25;;
23588;SDS011;11972;48.078;11.876;2023-10-13T03:44:35;7.55;;;2.38;;
23588;SDS011;11972;48.078;11.876;2023-10-13T03:48:38;5.93;;;2.90;;
23588;SDS011;11972;48.078;11.876;2023-10-13T03:52:52;4.10;;;2.30;;
23588;SDS011;11972;48.078;11.876;2023-10-13T03:56:57;3.72;;;2.08;;
23588;SDS011;11972;48.078;11.876;2023-10-13T04:01:04;6.30;;;3.08;;
23588;SDS011;11972;48.078;11.876;2023-10-13T04:05:10;11.48;;;5.72;;
23588;SDS011;11972;48.078;11.876;2023-10-13T04:09:29;4.88;;;2.72;;
23588;SDS011;11972;48.078;11.876;2023-10-13T04:13:29;4.47;;;2.35;;
23588;SDS011;11972;48.078;11.876;2023-10-13T04:17:48;3.25;;;2.30;;
23588;SDS011;11972;48.078;11.876;2023-10-13T04:21:50;4.35;;;2.00;;
23588;SDS011;11972;48.078;11.876;2023-10-13T04:26:04;4.95;;;2.10;;
23588;SDS011;11972;48.078;11.876;2023-10-13T04:30:21;6.65;;;1.92;;
23588;SDS011;11972;48.078;11.876;2023-10-13T04:34:38;5.82;;;2.00;;
23588;SDS011;11972;48.078;11.876;2023-10-13T04:38:40;7.03;;;2.50;;
23588;SDS011;11972;48.078;11.876;2023-10-13T04:42:56;3.80;;;1.90;;
23588;SDS011;11972;48.078;11.876;2023-10-13T04:46:57;5.13;;;2.67;;
23588;SDS011;11972;48.078;11.876;2023-10-13T04:51:00;5.32;;;2.80;;
23588;SDS011;11972;48.078;11.876;2023-10-13T04:55:20;4.80;;;2.22;;
23588;SDS011;11972;48.078;11.876;2023-10-13T04:59:48;4.47;;;2.45;;
23588;SDS011;11972;48.078;11.876;2023-10-13T05:04:08;4.25;;;2.47;;
23588;SDS011;11972;48.078;11.876;2023-10-13T05:08:14;5.15;;;2.40;;
23588;SDS011;11972;48.078;11.876;2023-10-13T05:12:32;7.57;;;3.70;;
23588;SDS011;11972;48.078;11.876;2023-10-13T05:16:51;9.85;;;2.90;;
23588;SDS011;11972;48.078;11.876;2023-10-13T05:21:10;5.38;;;2.67;;
23588;SDS011;11972;48.078;11.876;2023-10-13T05:25:29;3.53;;;2.40;;
23588;SDS011;11972;48.078;11.876;2023-10-13T05:29:47;5.93;;;2.70;;
23588;SDS011;11972;48.078;11.876;2023-10-13T05:34:07;6.18;;;2.20;;
23588;SDS011;11972;48.078;11.876;2023-10-13T05:38:26;5.50;;;2.60;;
23588;SDS011;11972;48.078;11.876;2023-10-13T05:42:44;4.65;;;2.33;;
23588;SDS011;11972;48.078;11.876;2023-10-13T05:47:04;4.03;;;2.10;;
23588;SDS011;11972;48.078;11.876;2023-10-13T05:51:23;7.25;;;2.33;;
23588;SDS011;11972;48.078;11.876;2023-10-13T05:55:36;6.70;;;2.72;;
23588;SDS011;11972;48.078;11.876;2023-10-13T05:59:56;3.78;;;2.20;;
23588;SDS011;11972;48.078;11.876;2023-10-13T06:04:15;5.57;;;2.13;;
23588;SDS011;11972;48.078;11.876;2023-10-13T06:08:33;8.32;;;2.42;;
23588;SDS011;11972;48.078;11.876;2023-10-13T06:12:52;10.25;;;3.10;;
23588;SDS011;11972;48.078;11.876;2023-10-13T06:17:11;6.47;;;2.40;;
23588;SDS011;11972;48.078;11.876;2023-10-13T06:21:30;8.70;;;2.80;;
23588;SDS011;11972;48.078;11.876;2023-10-13T06:25:52;8.13;;;2.85;;
23588;SDS011;11972;48.078;11.876;2023-10-13T06:30:11;7.93;;;2.30;;
23588;SDS011;11972;48.078;11.876;2023-10-13T06:34:12;5.50;;;2.17;;
23588;SDS011;11972;48.078;11.876;2023-10-13T06:38:15;9.38;;;3.17;;
23588;SDS011;11972;48.078;11.876;2023-10-13T06:42:21;8.27;;;2.70;;
23588;SDS011;11972;48.078;11.876;2023-10-13T06:46:21;5.40;;;2.50;;
23588;SDS011;11972;48.078;11.876;2023-10-13T06:50:23;5.70;;;2.47;;
23588;SDS011;11972;48.078;11.876;2023-10-13T06:54:24;6.47;;;2.22;;
23588;SDS011;11972;48.078;11.876;2023-10-13T06:58:25;4.65;;;2.28;;
23588;SDS011;11972;48.078;11.876;2023-10-13T07:02:25;5.85;;;2.10;;
23588;SDS011;11972;48.078;11.876;2023-10-13T07:06:33;8.20;;;2.70;;
23588;SDS011;11972;48.078;11.876;2023-10-13T07:10:33;6.03;;;2.50;;
23588;SDS011;11972;48.078;11.876;2023-10-13T07:14:48;5.65;;;2.40;;
23588;SDS011;11972;48.078;11.876;2023-10-13T07:18:53;6.20;;;2.85;;
23588;SDS011;11972;48.078;11.876;2023-10-13T07:22:54;4.85;;;2.78;;
23588;SDS011;11972;48.078;11.876;2023-10-13T07:26:57;5.95;;;2.67;;
23588;SDS011;11972;48.078;11.876;2023-10-13T07:31:05;5.15;;;2.22;;
23588;SDS011;11972;48.078;11.876;2023-10-13T07:35:06;6.90;;;2.10;;
23588;SDS011;11972;48.078;11.876;2023-10-13T07:39:10;5.97;;;2.15;;
23588;SDS011;11972;48.078;11.876;2023-10-13T07:43:23;8.35;;;2.78;;
23588;SDS011;11972;48.078;11.876;2023-10-13T07:47:24;10.30;;;2.40;;
23588;SDS011;11972;48.078;11.876;2023-10-13T07:51:26;7.72;;;2.30;;
23588;SDS011;11972;48.078;11.876;2023-10-13T07:55:33;7.75;;;2.13;;
23588;SDS011;11972;48.078;11.876;2023-10-13T07:59:33;6.60;;;2.17;;
23588;SDS011;11972;48.078;11.876;2023-10-13T08:03:47;6.97;;;2.22;;
23588;SDS011;11972;48.078;11.876;2023-10-13T08:07:57;6.57;;;2.20;;
23588;SDS011;11972;48.078;11.876;2023-10-13T08:11:57;6.27;;;2.20;;
23588;SDS011;11972;48.078;11.876;2023-10-13T08:16:00;13.10;;;3.83;;
23588;SDS011;11972;48.078;11.876;2023-10-13T08:20:06;3.92;;;2.10;;
23588;SDS011;11972;48.078;11.876;2023-10-13T08:24:12;7.35;;;2.10;;
23588;SDS011;11972;48.078;11.876;2023-10-13T08:28:15;10.20;;;3.22;;
23588;SDS011;11972;48.078;11.876;2023-10-13T08:32:51;8.80;;;2.13;;
23588;SDS011;11972;48.078;11.876;2023-10-13T08:36:58;9.48;;;2.10;;
23588;SDS011;11972;48.078;11.876;2023-10-13T08:40:59;4.20;;;1.90;;
23588;SDS011;11972;48.078;11.876;2023-10-13T08:45:23;6.90;;;1.90;;
23588;SDS011;11972;48.078;11.876;2023-10-13T08:49:44;8.30;;;2.72;;
23588;SDS011;11972;48.078;11.876;2023-10-13T08:53:52;7.97;;;2.00;;
23588;SDS011;11972;48.078;11.876;2023-10-13T08:57:58;9.32;;;2.08;;
23588;SDS011;11972;48.078;11.876;2023-10-13T09:02:13;6.63;;;2.10;;
23588;SDS011;11972;48.078;11.876;2023-10-13T09:06:18;8.73;;;2.17;;
23588;SDS011;11972;48.078;11.876;2023-10-13T09:10:23;5.93;;;2.22;;
23588;SDS011;11972;48.078;11.876;2023-10-13T09:14:44;6.75;;;2.45;;
23588;SDS011;11972;48.078;11.876;2023-10-13T09:19:01;5.38;;;2.10;;
23588;SDS011;11972;48.078;11.876;2023-10-13T09:23:11;4.05;;;2.05;;
23588;SDS011;11972;48.078;11.876;2023-10-13T09:27:33;6.15;;;1.95;;
23588;SDS011;11972;48.078;11.876;2023-10-13T09:31:33;6.80;;;1.98;;
23588;SDS011;11972;48.078;11.876;2023-10-13T09:35:34;6.63;;;2.07;;
23588;SDS011;11972;48.078;11.876;2023-10-13T09:39:37;7.32;;;2.03;;
23588;SDS011;11972;48.078;11.876;2023-10-13T09:43:44;4.63;;;2.10;;
23588;SDS011;11972;48.078;11.876;2023-10-13T09:47:46;4.10;;;2.00;;
23588;SDS011;11972;48.078;11.876;2023-10-13T09:51:52;4.63;;;2.13;;
23588;SDS011;11972;48.078;11.876;2023-10-13T09:56:02;4.88;;;1.95;;
23588;SDS011;11972;48.078;11.876;2023-10-13T10:00:19;4.43;;;1.73;;
23588;SDS011;11972;48.078;11.876;2023-10-13T10:04:40;4.47;;;2.10;;
23588;SDS011;11972;48.078;11.876;2023-10-13T10:08:51;3.70;;;2.00;;
23588;SDS011;11972;48.078;11.876;2023-10-13T10:12:59;5.15;;;2.28;;
23588;SDS011;11972;48.078;11.876;2023-10-13T10:17:08;3.58;;;1.83;;
23588;SDS011;11972;48.078;11.876;2023-10-13T10:21:08;6.25;;;1.98;;
23588;SDS011;11972;48.078;11.876;2023-10-13T10:25:10;5.68;;;1.88;;
23588;SDS011;11972;48.078;11.876;2023-10-13T10:29:24;6.50;;;1.88;;
23588;SDS011;11972;48.078;11.876;2023-10-13T10:33:29;5.13;;;1.90;;
23588;SDS011;11972;48.078;11.876;2023-10-13T10:37:33;8.48;;;2.22;;
23588;SDS011;11972;48.078;11.876;2023-10-13T10:41:34;5.70;;;2.05;;
23588;SDS011;11972;48.078;11.876;2023-10-13T10:45:52;5.47;;;1.92;;
23588;SDS011;11972;48.078;11.876;2023-10-13T10:49:52;5.63;;;2.60;;
23588;SDS011;11972;48.078;11.876;2023-10-13T10:53:53;3.17;;;2.08;;
23588;SDS011;11972;48.078;11.876;2023-10-13T10:58:00;3.17;;;1.88;;
23588;SDS011;11972;48.078;11.876;2023-10-13T11:02:06;4.78;;;1.80;;
23588;SDS011;11972;48.078;11.876;2023-10-13T11:06:12;7.75;;;2.45;;
23588;SDS011;11972;48.078;11.876;2023-10-13T11:10:24;4.13;;;2.10;;
23588;SDS011;11972;48.078;11.876;2023-10-13T11:14:28;7.63;;;2.53;;
23588;SDS011;11972;48.078;11.876;2023-10-13T11:18:29;5.72;;;2.17;;
23588;SDS011;11972;48.078;11.876;2023-10-13T11:22:40;3.22;;;2.60;;
23588;SDS011;11972;48.078;11.876;2023-10-13T11:26:47;5.65;;;2.45;;
23588;SDS011;11972;48.078;11.876;2023-10-13T11:30:52;9.18;;;3.40;;
23588;SDS011;11972;48.078;11.876;2023-10-13T11:34:54;5.05;;;2.15;;
23588;SDS011;11972;48.078;11.876;2023-10-13T11:38:54;6.93;;;2.22;;
23588;SDS011;11972;48.078;11.876;2023-10-13T11:42:57;6.35;;;2.10;;
23588;SDS011;11972;48.078;11.876;2023-10-13T11:46:58;3.63;;;2.05;;
23588;SDS011;11972;48.078;11.876;2023-10-13T11:51:16;4.40;;;1.73;;
23588;SDS011;11972;48.078;11.876;2023-10-13T11:55:38;4.68;;;2.00;;
23588;SDS011;11972;48.078;11.876;2023-10-13T11:59:38;3.10;;;2.00;;
23588;SDS011;11972;48.078;11.876;2023-10-13T12:03:46;4.50;;;2.28;;
23588;SDS011;11972;48.078;11.876;2023-10-13T12:08:06;4.00;;;1.98;;
23588;SDS011;11972;48.078;11.876;2023-10-13T12:12:19;4.18;;;1.80;;
23588;SDS011;11972;48.078;11.876;2023-10-13T12:16:20;7.80;;;1.70;;
23588;SDS011;11972;48.078;11.876;2023-10-13T12:20:22;3.72;;;1.77;;
23588;SDS011;11972;48.078;11.876;2023-10-13T12:24:32;4.95;;;1.40;;
23588;SDS011;11972;48.078;11.876;2023-10-13T12:28:35;4.10;;;1.95;;
23588;SDS011;11972;48.078;11.876;2023-10-13T12:32:41;6.30;;;1.80;;
23588;SDS011;11972;48.078;11.876;2023-10-13T12:36:53;2.95;;;1.48;;
23588;SDS011;11972;48.078;11.876;2023-10-13T12:41:05;3.15;;;1.52;;
23588;SDS011;11972;48.078;11.876;2023-10-13T12:45:24;6.07;;;1.70;;
23588;SDS011;11972;48.078;11.876;2023-10-13T12:49:43;4.68;;;1.77;;
23588;SDS011;11972;48.078;11.876;2023-10-13T12:53:43;6.13;;;1.80;;
23588;SDS011;11972;48.078;11.876;2023-10-13T12:57:45;7.15;;;2.33;;
23588;SDS011;11972;48.078;11.876;2023-10-13T13:01:45;5.00;;;2.83;;
23588;SDS011;11972;48.078;11.876;2023-10-13T13:05:46;6.55;;;1.85;;
23588;SDS011;11972;48.078;11.876;2023-10-13T13:09:46;5.87;;;1.83;;
23588;SDS011;11972;48.078;11.876;2023-10-13T13:13:47;4.27;;;1.90;;
23588;SDS011;11972;48.078;11.876;2023-10-13T13:17:47;5.95;;;2.13;;
23588;SDS011;11972;48.078;11.876;2023-10-13T13:21:48;5.68;;;1.40;;
23588;SDS011;11972;48.078;11.876;2023-10-13T13:25:48;5.63;;;1.92;;
23588;SDS011;11972;48.078;11.876;2023-10-13T13:29:49;4.85;;;2.60;;
23588;SDS011;11972;48.078;11.876;2023-10-13T13:33:49;5.70;;;1.80;;
23588;SDS011;11972;48.078;11.876;2023-10-13T13:37:51;5.95;;;1.50;;
23588;SDS011;11972;48.078;11.876;2023-10-13T13:41:51;5.57;;;1.70;;
23588;SDS011;11972;48.078;11.876;2023-10-13T13:46:00;4.72;;;2.08;;
23588;SDS011;11972;48.078;11.876;2023-10-13T13:50:03;4.88;;;2.22;;
23588;SDS011;11972;48.078;11.876;2023-10-13T13:54:14;5.13;;;1.92;;
23588;SDS011;11972;48.078;11.876;2023-10-13T13:58:15;6.15;;;1.80;;
23588;SDS011;11972;48.078;11.876;2023-10-13T14:02:15;5.47;;;1.80;;
23588;SDS011;11972;48.078;11.876;2023-10-13T14:06:22;5.30;;;1.73;;
23588;SDS011;11972;48.078;11.876;2023-10-13T14:10:24;5.85;;;1.55;;
23588;SDS011;11972;48.078;11.876;2023-10-13T14:14:45;6.10;;;2.05;;
23588;SDS011;11972;48.078;11.876;2023-10-13T14:18:55;7.38;;;3.63;;
23588;SDS011;11972;48.078;11.876;2023-10-13T14:22:56;5.17;;;1.70;;
23588;SDS011;11972;48.078;11.876;2023-10-13T14:26:57;6.10;;;1.60;;
23588;SDS011;11972;48.078;11.876;2023-10-13T14:31:18;4.70;;;1.83;;
23588;SDS011;11972;48.078;11.876;2023-10-13T14:35:18;3.90;;;2.92;;
23588;SDS011;11972;48.078;11.876;2023-10-13T14:39:19;8.80;;;2.00;;
23588;SDS011;11972;48.078;11.876;2023-10-13T14:43:21;2.80;;;1.88;;
23588;SDS011;11972;48.078;11.876;2023-10-13T14:47:25;8.13;;;2.72;;
23588;SDS011;11972;48.078;11.876;2023-10-13T14:51:25;4.55;;;2.03;;
23588;SDS011;11972;48.078;11.876;2023-10-13T14:55:25;7.53;;;2.17;;
23588;SDS011;11972;48.078;11.876;2023-10-13T14:59:38;5.60;;;2.17;;
23588;SDS011;11972;48.078;11.876;2023-10-13T15:03:39;4.88;;;1.63;;
23588;SDS011;11972;48.078;11.876;2023-10-13T15:07:39;4.33;;;1.63;;
23588;SDS011;11972;48.078;11.876;2023-10-13T15:11:44;4.80;;;2.22;;
23588;SDS011;11972;48.078;11.876;2023-10-13T15:15:47;6.95;;;2.47;;
23588;SDS011;11972;48.078;11.876;2023-10-13T15:19:48;5.07;;;2.10;;
23588;SDS011;11972;48.078;11.876;2023-10-13T15:23:48;6.57;;;1.80;;
23588;SDS011;11972;48.078;11.876;2023-10-13T15:27:51;5.75;;;2.30;;
23588;SDS011;11972;48.078;11.876;2023-10-13T15:31:57;7.30;;;2.22;;
23588;SDS011;11972;48.078;11.876;2023-10-13T15:36:00;5.63;;;2.20;;
23588;SDS011;11972;48.078;11.876;2023-10-13T15:40:00;7.80;;;2.40;;
23588;SDS011;11972;48.078;11.876;2023-10-13T15:44:03;6.45;;;2.75;;
23588;SDS011;11972;48.078;11.876;2023-10-13T15:48:09;6.78;;;2.60;;
23588;SDS011;11972;48.078;11.876;2023-10-13T15:52:14;8.13;;;3.47;;
23588;SDS011;11972;48.078;11.876;2023-10-13T15:56:16;6.35;;;2.85;;
23588;SDS011;11972;48.078;11.876;2023-10-13T16:00:17;5.32;;;2.20;;
23588;SDS011;11972;48.078;11.876;2023-10-13T16:04:23;5.65;;;2.15;;
23588;SDS011;11972;48.078;11.876;2023-10-13T16:08:24;8.88;;;2.35;;
23588;SDS011;11972;48.078;11.876;2023-10-13T16:12:24;7.60;;;2.40;;
23588;SDS011;11972;48.078;11.876;2023-10-13T16:16:25;8.40;;;2.50;;
23588;SDS011;11972;48.078;11.876;2023-10-13T16:20:26;8.98;;;2.35;;
23588;SDS011;11972;48.078;11.876;2023-10-13T16:24:27;6.60;;;3.85;;
23588;SDS011;11972;48.078;11.876;2023-10-13T16:28:28;9.13;;;3.43;;
23588;SDS011;11972;48.078;11.876;2023-10-13T16:32:28;6.30;;;3.03;;
23588;SDS011;11972;48.078;11.876;2023-10-13T16:36:30;7.40;;;3.08;;
23588;SDS011;11972;48.078;11.876;2023-10-13T16:40:31;10.07;;;5.38;;
23588;SDS011;11972;48.078;11.876;2023-10-13T16:44:31;17.55;;;8.15;;
23588;SDS011;11972;48.078;11.876;2023-10-13T16:48:32;8.40;;;4.63;;
23588;SDS011;11972;48.078;11.876;2023-10-13T16:52:33;8.07;;;4.28;;
23588;SDS011;11972;48.078;11.876;2023-10-13T16:56:33;13.47;;;7.37;;
23588;SDS011;11972;48.078;11.876;2023-10-13T17:00:36;7.38;;;4.50;;
23588;SDS011;11972;48.078;11.876;2023-10-13T17:04:37;11.95;;;6.07;;
23588;SDS011;11972;48.078;11.876;2023-10-13T17:08:38;8.07;;;5.53;;
23588;SDS011;11972;48.078;11.876;2023-10-13T17:12:38;7.53;;;5.75;;
23588;SDS011;11972;48.078;11.876;2023-10-13T17:16:39;8.63;;;4.60;;
23588;SDS011;11972;48.078;11.876;2023-10-13T17:20:39;8.25;;;4.45;;
23588;SDS011;11972;48.078;11.876;2023-10-13T17:24:40;11.85;;;7.90;;
23588;SDS011;11972;48.078;11.876;2023-10-13T17:28:40;8.63;;;4.60;;
23588;SDS011;11972;48.078;11.876;2023-10-13T17:32:41;6.65;;;3.10;;
23588;SDS011;11972;48.078;11.876;2023-10-13T17:36:44;7.05;;;3.47;;
23588;SDS011;11972;48.078;11.876;2023-10-13T17:40:48;15.13;;;8.57;;
23588;SDS011;11972;48.078;11.876;2023-10-13T17:44:48;16.05;;;11.07;;
23588;SDS011;11972;48.078;11.876;2023-10-13T17:48:50;7.88;;;4.75;;
23588;SDS011;11972;48.078;11.876;2023-10-13T17:52:55;6.80;;;4.72;;
23588;SDS011;11972;48.078;11.876;2023-10-13T17:56:58;5.57;;;2.70;;
23588;SDS011;11972;48.078;11.876;2023-10-13T18:01:04;6.70;;;3.15;;
23588;SDS011;11972;48.078;11.876;2023-10-13T18:05:05;6.40;;;4.40;;
23588;SDS011;11972;48.078;11.876;2023-10-13T18:09:05;7.65;;;2.80;;
23588;SDS011;11972;48.078;11.876;2023-10-13T18:13:11;5.07;;;2.65;;
23588;SDS011;11972;48.078;11.876;2023-10-13T18:17:12;6.05;;;3.47;;
23588;SDS011;11972;48.078;11.876;2023-10-13T18:21:16;8.20;;;4.38;;
23588;SDS011;11972;48.078;11.876;2023-10-13T18:25:18;9.38;;;4.70;;
23588;SDS011;11972;48.078;11.876;2023-10-13T18:29:24;7.18;;;4.75;;
23588;SDS011;11972;48.078;11.876;2023-10-13T18:33:25;6.07;;;4.63;;
23588;SDS011;11972;48.078;11.876;2023-10-13T18:37:26;8.18;;;6.40;;
23588;SDS011;11972;48.078;11.876;2023-10-13T18:41:27;7.77;;;4.97;;
23588;SDS011;11972;48.078;11.876;2023-10-13T18:45:30;6.75;;;4.45;;
23588;SDS011;11972;48.078;11.876;2023-10-13T18:49:31;6.38;;;4.38;;
23588;SDS011;11972;48.078;11.876;2023-10-13T18:53:33;12.55;;;4.60;;
23588;SDS011;11972;48.078;11.876;2023-10-13T18:57:40;7.05;;;4.47;;
23588;SDS011;11972;48.078;11.876;2023-10-13T19:01:44;11.35;;;4.75;;
23588;SDS011;11972;48.078;11.876;2023-10-13T19:05:46;7.85;;;4.80;;
23588;SDS011;11972;48.078;11.876;2023-10-13T19:09:46;10.40;;;5.40;;
23588;SDS011;11972;48.078;11.876;2023-10-13T19:13:47;10.02;;;6.57;;
23588;SDS011;11972;48.078;11.876;2023-10-13T19:17:50;11.77;;;7.30;;
23588;SDS011;11972;48.078;11.876;2023-10-13T19:21:51;12.95;;;6.43;;
23588;SDS011;11972;48.078;11.876;2023-10-13T19:25:51;9.73;;;6.28;;
23588;SDS011;11972;48.078;11.876;2023-10-13T19:29:53;12.98;;;6.93;;
23588;SDS011;11972;48.078;11.876;2023-10-13T19:33:55;12.38;;;6.65;;
23588;SDS011;11972;48.078;11.876;2023-10-13T19:37:57;7.88;;;4.40;;
23588;SDS011;11972;48.078;11.876;2023-10-13T19:41:57;7.07;;;4.67;;
23588;SDS011;11972;48.078;11.876;2023-10-13T19:45:57;6.57;;;4.73;;
23588;SDS011;11972;48.078;11.876;2023-10-13T19:49:59;7.75;;;4.13;;
23588;SDS011;11972;48.078;11.876;2023-10-13T19:54:00;11.68;;;6.72;;
23588;SDS011;11972;48.078;11.876;2023-10-13T19:58:05;5.45;;;4.07;;
23588;SDS011;11972;48.078;11.876;2023-10-13T20:02:07;8.52;;;4.50;;
23588;SDS011;11972;48.078;11.876;2023-10-13T20:06:09;5.65;;;4.35;;
23588;SDS011;11972;48.078;11.876;2023-10-13T20:10:10;8.15;;;4.20;;
23588;SDS011;11972;48.078;11.876;2023-10-13T20:14:10;7.07;;;4.27;;
23588;SDS011;11972;48.078;11.876;2023-10-13T20:18:11;10.10;;;4.97;;
23588;SDS011;11972;48.078;11.876;2023-10-13T20:22:11;7.00;;;4.70;;
23588;SDS011;11972;48.078;11.876;2023-10-13T20:26:12;6.72;;;4.78;;
23588;SDS011;11972;48.078;11.876;2023-10-13T20:30:15;6.47;;;4.80;;
23588;SDS011;11972;48.078;11.876;2023-10-13T20:34:16;7.07;;;5.13;;
23588;SDS011;11972;48.078;11.876;2023-10-13T20:38:23;6.75;;;4.97;;
23588;SDS011;11972;48.078;11.876;2023-10-13T20:42:24;11.57;;;7.25;;
23588;SDS011;11972;48.078;11.876;2023-10-13T20:46:24;8.27;;;4.50;;
23588;SDS011;11972;48.078;11.876;2023-10-13T20:50:25;6.03;;;4.07;;
23588;SDS011;11972;48.078;11.876;2023-10-13T20:54:25;6.07;;;4.15;;
23588;SDS011;11972;48.078;11.876;2023-10-13T20:58:26;6.28;;;4.22;;
23588;SDS011;11972;48.078;11.876;2023-10-13T21:02:27;8.88;;;4.35;;
23588;SDS011;11972;48.078;11.876;2023-10-13T21:06:27;7.63;;;5.10;;
23588;SDS011;11972;48.078;11.876;2023-10-13T21:10:28;5.63;;;4.43;;
23588;SDS011;11972;48.078;11.876;2023-10-13T21:14:28;5.70;;;4.30;;
23588;SDS011;11972;48.078;11.876;2023-10-13T21:18:28;7.40;;;3.93;;
23588;SDS011;11972;48.078;11.876;2023-10-13T21:22:28;7.37;;;4.00;;
23588;SDS011;11972;48.078;11.876;2023-10-13T21:26:29;6.90;;;3.93;;
23588;SDS011;11972;48.078;11.876;2023-10-13T21:30:30;4.32;;;3.92;;
23588;SDS011;11972;48.078;11.876;2023-10-13T21:34:31;6.50;;;4.03;;
23588;SDS011;11972;48.078;11.876;2023-10-13T21:38:31;8.43;;;4.20;;
23588;SDS011;11972;48.078;11.876;2023-10-13T21:42:33;7.40;;;4.15;;
23588;SDS011;11972;48.078;11.876;2023-10-13T21:46:33;7.65;;;4.00;;
23588;SDS011;11972;48.078;11.876;2023-10-13T21:50:39;4.93;;;3.83;;
23588;SDS011;11972;48.078;11.876;2023-10-13T21:54:40;4.72;;;3.50;;
23588;SDS011;11972;48.078;11.876;2023-10-13T21:58:41;6.43;;;3.93;;
23588;SDS011;11972;48.078;11.876;2023-10-13T22:02:45;7.70;;;3.53;;
23588;SDS011;11972;48.078;11.876;2023-10-13T22:06:46;5.35;;;3.60;;
23588;SDS011;11972;48.078;11.876;2023-10-13T22:10:46;6.68;;;4.00;;
23588;SDS011;11972;48.078;11.876;2023-10-13T22:14:46;3.78;;;3.20;;
23588;SDS011;11972;48.078;11.876;2023-10-13T22:18:48;7.10;;;3.50;;
23588;SDS011;11972;48.078;11.876;2023-10-13T22:22:49;6.60;;;3.22;;
23588;SDS011;11972;48.078;11.876;2023-10-13T22:26:50;6.35;;;3.55;;
23588;SDS011;11972;48.078;11.876;2023-10-13T22:30:50;8.68;;;5.00;;
23588;SDS011;11972;48.078;11.876;2023-10-13T22:34:51;8.35;;;4.95;;
23588;SDS011;11972;48.078;11.876;2023-10-13T22:38:53;7.03;;;4.50;;
23588;SDS011;11972;48.078;11.876;2023-10-13T22:42:55;6.38;;;4.18;;
23588;SDS011;11972;48.078;11.876;2023-10-13T22:46:56;7.80;;;3.72;;
23588;SDS011;11972;48.078;11.876;2023-10-13T22:50:56;5.33;;;3.77;;
23588;SDS011;11972;48.078;11.876;2023-10-13T22:54:56;9.27;;;7.60;;
23588;SDS011;11972;48.078;11.876;2023-10-13T22:58:57;8.90;;;4.80;;
23588;SDS011;11972;48.078;11.876;2023-10-13T23:02:57;5.40;;;3.60;;
23588;SDS011;11972;48.078;11.876;2023-10-13T23:06:58;5.30;;;3.58;;
23588;SDS011;11972;48.078;11.876;2023-10-13T23:10:59;7.72;;;3.58;;
23588;SDS011;11972;48.078;11.876;2023-10-13T23:15:00;7.13;;;3.38;;
23588;SDS011;11972;48.078;11.876;2023-10-13T23:19:00;6.93;;;3.40;;
23588;SDS011;11972;48.078;11.876;2023-10-13T23:23:02;6.55;;;3.60;;
23588;SDS011;11972;48.078;11.876;2023-10-13T23:27:03;4.40;;;2.90;;
23588;SDS011;11972;48.078;11.876;2023-10-13T23:31:05;4.43;;;3.03;;
23588;SDS011;11972;48.078;11.876;2023-10-13T23:35:05;6.57;;;3.58;;
23588;SDS011;11972;48.078;11.876;2023-10-13T23:39:06;6.40;;;3.40;;
23588;SDS011;11972;48.078;11.876;2023-10-13T23:43:09;5.15;;;3.15;;
23588;SDS011;11972;48.078;11.876;2023-10-13T23:47:21;5.50;;;3.03;;
23588;SDS011;11972;48.078;11.876;2023-10-13T23:51:27;6.13;;;3.20;;
23588;SDS011;11972;48.078;11.876;2023-10-13T23:55:32;8.95;;;3.67;;
23588;SDS011;11972;48.078;11.876;2023-10-13T23:59:33;6.97;;;3.15;;
